Time;durP1;ratioP1;P1;durP2;ratioP2;P2;SDS_P1;SDS_P2;PMS_P1;PMS_P2;Temp;Humidity;BMP_temperature;BMP_pressure;BME280_temperature;BME280_humidity;BME280_pressure;Samples;Min_cycle;Max_cycle;Signal;HPM_P1;HPM_P2
2021/06/17 00:01:03;;;;;;;11.13;8.13;;;;;;;22.28;100.00;100244.59;4979184;28;20069;-58
2021/06/17 00:03:31;;;;;;;10.65;8.27;;;;;;;22.23;100.00;100241.78;4983111;28;20187;-58
2021/06/17 00:05:59;;;;;;;11.50;9.35;;;;;;;22.23;100.00;100247.22;4982770;28;20043;-58
2021/06/17 00:08:27;;;;;;;14.05;8.13;;;;;;;;;;4980159;28;20042;-58
2021/06/17 00:10:55;;;;;;;8.65;7.65;;;;;;;22.18;100.00;100245.28;4984278;28;20050;-59
2021/06/17 00:13:27;;;;;;;13.38;8.00;;;;;;;22.22;100.00;100240.97;4979102;28;20115;-59
2021/06/17 00:15:58;;;;;;;11.10;8.40;;;;;;;22.18;100.00;100237.13;4983286;28;20046;-58
2021/06/17 00:18:28;;;;;;;10.48;8.13;;;;;;;22.24;100.00;100230.69;4980580;28;20042;-58
2021/06/17 00:20:56;;;;;;;10.52;7.90;;;;;;;22.25;100.00;100235.03;4982138;28;20315;-59
2021/06/17 00:23:24;;;;;;;11.75;8.73;;;;;;;22.13;100.00;100234.38;4980257;28;20058;-59
2021/06/17 00:25:52;;;;;;;12.35;8.73;;;;;;;22.15;100.00;100229.47;4979059;28;20418;-58
2021/06/17 00:28:20;;;;;;;11.65;8.85;;;;;;;22.10;100.00;100223.97;4983144;28;20108;-58
2021/06/17 00:30:48;;;;;;;10.68;8.70;;;;;;;22.08;100.00;100239.72;4983513;28;20054;-58
2021/06/17 00:33:17;;;;;;;9.82;8.82;;;;;;;22.05;100.00;100234.81;4980300;28;20101;-58
2021/06/17 00:35:45;;;;;;;10.93;8.27;;;;;;;22.04;100.00;100244.03;4995388;28;20042;-58
2021/06/17 00:38:13;;;;;;;11.02;8.05;;;;;;;22.10;100.00;100245.72;4979772;28;20038;-58
2021/06/17 00:40:42;;;;;;;11.70;8.45;;;;;;;22.12;100.00;100240.88;4984714;28;20434;-58
2021/06/17 00:43:10;;;;;;;10.73;8.70;;;;;;;22.17;100.00;100243.63;4979497;28;20346;-58
2021/06/17 00:45:40;;;;;;;17.70;8.85;;;;;;;22.18;100.00;100246.13;4978245;28;20045;-59
2021/06/17 00:48:09;;;;;;;9.98;7.68;;;;;;;22.17;100.00;100238.19;4982620;28;20104;-58
2021/06/17 00:50:41;;;;;;;9.85;8.25;;;;;;;22.20;100.00;100248.59;4980281;28;20118;-58
2021/06/17 00:53:10;;;;;;;12.85;8.50;;;;;;;22.17;100.00;100255.34;4979996;28;20051;-58
2021/06/17 00:55:40;;;;;;;11.60;8.70;;;;;;;22.13;100.00;100264.28;4979149;28;20049;-58
2021/06/17 00:58:08;;;;;;;13.52;8.60;;;;;;;22.11;100.00;100255.53;4977500;28;20055;-58
2021/06/17 01:00:36;;;;;;;15.13;9.63;;;;;;;22.09;100.00;100257.69;4980040;28;20046;-58
2021/06/17 01:03:05;;;;;;;9.60;8.48;;;;;;;22.06;100.00;100247.31;4978788;28;20046;-58
2021/06/17 01:05:33;;;;;;;14.57;9.88;;;;;;;22.04;100.00;100249.47;4979443;28;20053;-58
2021/06/17 01:08:30;;;;;;;10.52;7.82;;;;;;;22.07;100.00;100252.53;4978955;28;20053;-58
2021/06/17 01:11:07;;;;;;;11.57;9.40;;;;;;;22.01;100.00;100246.19;4980618;28;20481;-58
2021/06/17 01:13:43;;;;;;;9.27;8.38;;;;;;;21.95;100.00;100241.75;4997379;28;20178;-58
2021/06/17 01:16:14;;;;;;;12.00;10.15;;;;;;;21.80;100.00;100236.13;4976138;28;20117;-58
2021/06/17 01:18:47;;;;;;;12.18;9.60;;;;;;;21.79;100.00;100231.78;4980773;28;20057;-58
2021/06/17 01:21:25;;;;;;;15.07;9.80;;;;;;;21.73;100.00;100228.19;4978434;28;20042;-58
2021/06/17 01:24:06;;;;;;;11.43;10.27;;;;;;;21.73;100.00;100227.34;4979344;28;20030;-58
2021/06/17 01:27:00;;;;;;;12.65;9.18;;;;;;;21.79;100.00;100235.31;4982308;28;20342;-58
2021/06/17 01:29:30;;;;;;;14.70;9.43;;;;;;;21.72;100.00;100231.13;4983216;28;20046;-58
2021/06/17 01:31:58;;;;;;;14.13;9.52;;;;;;;21.67;100.00;100232.72;4979079;28;20054;-58
2021/06/17 01:34:27;;;;;;;11.93;9.57;;;;;;;21.66;100.00;100230.22;4977462;28;20043;-58
2021/06/17 01:36:59;;;;;;;15.52;9.65;;;;;;;21.54;100.00;100230.34;4978363;28;20046;-58
2021/06/17 01:39:27;;;;;;;12.18;9.50;;;;;;;21.53;100.00;100222.44;4979856;28;20096;-58
2021/06/17 01:41:56;;;;;;;17.15;11.05;;;;;;;21.50;100.00;100219.16;4977061;28;20056;-58
2021/06/17 01:44:25;;;;;;;14.30;10.13;;;;;;;21.49;100.00;100217.50;4981933;28;20108;-58
2021/06/17 01:46:55;;;;;;;13.73;10.40;;;;;;;21.44;100.00;100211.16;4985736;28;20042;-58
2021/06/17 01:49:23;;;;;;;16.20;11.25;;;;;;;21.36;100.00;100208.88;4980297;28;20069;-58
2021/06/17 01:51:52;;;;;;;15.23;11.15;;;;;;;21.28;100.00;100205.50;4985969;28;20344;-58
2021/06/17 01:54:24;;;;;;;15.27;11.57;;;;;;;21.11;100.00;100204.72;4978752;28;20039;-58
2021/06/17 01:56:55;;;;;;;16.25;11.02;;;;;;;21.14;100.00;100198.78;4981637;28;20057;-58
2021/06/17 01:59:23;;;;;;;22.25;11.90;;;;;;;21.00;100.00;100192.88;4984783;28;20074;-58
2021/06/17 02:01:56;;;;;;;13.30;11.40;;;;;;;20.95;100.00;100187.34;4983290;28;20043;-58
2021/06/17 02:04:24;;;;;;;13.45;10.80;;;;;;;20.84;100.00;100188.25;4983079;28;20093;-58
2021/06/17 02:06:52;;;;;;;13.95;11.02;;;;;;;20.90;100.00;100171.81;4982229;28;20047;-59
2021/06/17 02:09:23;;;;;;;13.18;11.13;;;;;;;20.83;100.00;100176.59;4983741;28;20105;-58
2021/06/17 02:11:51;;;;;;;14.32;11.50;;;;;;;20.87;100.00;100183.19;4986355;28;20050;-58
2021/06/17 02:14:20;;;;;;;14.85;11.75;;;;;;;20.93;100.00;100182.19;4978043;28;20256;-58
2021/06/17 02:16:49;;;;;;;13.02;10.38;;;;;;;20.93;100.00;100186.78;4985774;28;20057;-58
2021/06/17 02:19:20;;;;;;;14.13;10.63;;;;;;;20.87;100.00;100183.19;4984098;28;20108;-58
2021/06/17 02:21:50;;;;;;;12.40;10.32;;;;;;;20.84;100.00;100180.97;4983334;28;20098;-58
2021/06/17 02:24:19;;;;;;;14.07;10.07;;;;;;;20.83;100.00;100176.59;4984878;28;20125;-58
2021/06/17 02:26:49;;;;;;;15.20;9.93;;;;;;;20.94;100.00;100174.88;4986651;28;20097;-58
2021/06/17 02:29:19;;;;;;;13.75;10.40;;;;;;;20.90;100.00;100173.72;4984349;28;20397;-58
2021/06/17 02:31:49;;;;;;;13.02;10.65;;;;;;;20.88;100.00;100175.84;4983660;28;20065;-58
2021/06/17 02:34:19;;;;;;;13.55;10.23;;;;;;;20.82;100.00;100174.94;4978753;28;20066;-58
2021/06/17 02:36:48;;;;;;;16.77;12.15;;;;;;;20.69;100.00;100167.97;4982348;28;20493;-58
2021/06/17 02:39:20;;;;;;;13.80;10.90;;;;;;;20.67;100.00;100169.22;4985440;28;20397;-58
2021/06/17 02:41:51;;;;;;;16.88;11.07;;;;;;;20.58;100.00;100175.09;4983421;28;20401;-58
2021/06/17 02:44:22;;;;;;;13.90;10.77;;;;;;;20.65;100.00;100174.91;4980214;28;20054;-58
2021/06/17 02:46:51;;;;;;;12.50;10.63;;;;;;;20.61;100.00;100173.75;4985663;28;20050;-58
2021/06/17 02:49:21;;;;;;;16.13;10.85;;;;;;;20.46;100.00;100169.72;4985350;28;20464;-58
2021/06/17 02:51:49;;;;;;;18.13;11.02;;;;;;;20.49;100.00;100162.97;4982692;28;20097;-58
2021/06/17 02:54:18;;;;;;;15.38;11.55;;;;;;;20.38;100.00;100161.97;4977407;28;20072;-58
2021/06/17 02:56:56;;;;;;;15.32;11.38;;;;;;;20.23;100.00;100167.13;4982065;28;20042;-58
2021/06/17 02:59:34;;;;;;;14.70;12.15;;;;;;;20.29;100.00;100169.69;4976996;28;20158;-58
2021/06/17 03:02:06;;;;;;;13.48;10.82;;;;;;;20.51;100.00;100165.44;4982936;28;20042;-58
2021/06/17 03:04:40;;;;;;;16.52;11.10;;;;;;;20.56;100.00;100170.97;4979362;28;20104;-57
2021/06/17 03:07:13;;;;;;;16.70;11.75;;;;;;;20.41;100.00;100164.22;4980012;28;20335;-57
2021/06/17 03:09:45;;;;;;;13.00;11.65;;;;;;;20.33;100.00;100158.34;4984188;28;20390;-58
2021/06/17 03:12:15;;;;;;;12.48;10.07;;;;;;;20.24;100.00;100158.78;4977885;28;20050;-58
2021/06/17 03:14:44;;;;;;;13.18;11.00;;;;;;;20.27;100.00;100157.44;4980520;28;20048;-57
2021/06/17 03:17:13;;;;;;;16.23;11.70;;;;;;;20.27;100.00;100152.84;4983568;28;20069;-58
2021/06/17 03:19:43;;;;;;;14.57;11.32;;;;;;;20.32;100.00;100149.41;4980654;28;20498;-57
2021/06/17 03:22:14;;;;;;;15.13;11.05;;;;;;;20.29;100.00;100142.56;4981547;28;20106;-58
2021/06/17 03:24:44;;;;;;;14.05;10.82;;;;;;;20.30;100.00;100127.16;4979590;28;20378;-58
2021/06/17 03:27:12;;;;;;;20.60;12.13;;;;;;;20.27;100.00;100125.75;4980447;28;20042;-58
2021/06/17 03:29:43;;;;;;;14.20;10.60;;;;;;;20.22;100.00;100112.09;4979599;28;20046;-58
2021/06/17 03:32:12;;;;;;;15.65;10.85;;;;;;;20.19;100.00;100123.44;4979845;28;20054;-58
2021/06/17 03:34:44;;;;;;;13.52;9.50;;;;;;;20.13;100.00;100127.13;4979418;28;20520;-58
2021/06/17 03:37:13;;;;;;;14.23;10.27;;;;;;;20.09;100.00;100126.78;4979097;28;20541;-58
2021/06/17 03:39:42;;;;;;;12.90;10.77;;;;;;;20.03;100.00;100126.91;4980294;28;20121;-58
2021/06/17 03:42:11;;;;;;;14.43;10.88;;;;;;;19.91;100.00;100122.38;4981167;28;20117;-58
2021/06/17 03:44:40;;;;;;;13.75;9.63;;;;;;;19.91;100.00;100126.97;4980096;28;20097;-57
2021/06/17 03:47:08;;;;;;;11.68;9.15;;;;;;;19.97;100.00;100136.03;4981854;28;20043;-58
2021/06/17 03:49:37;;;;;;;13.18;9.35;;;;;;;19.97;100.00;100141.44;4982551;28;20081;-58
2021/06/17 03:52:07;;;;;;;15.90;9.18;;;;;;;20.02;100.00;100136.13;4983121;28;20047;-58
2021/06/17 03:54:36;;;;;;;10.45;8.13;;;;;;;20.17;100.00;100136.38;4976948;28;20093;-58
2021/06/17 03:57:06;;;;;;;12.60;8.35;;;;;;;20.30;100.00;100138.00;4983262;28;20049;-57
2021/06/17 03:59:38;;;;;;;11.63;8.27;;;;;;;20.46;100.00;100141.78;4982751;28;20042;-57
2021/06/17 04:02:06;;;;;;;9.32;7.38;;;;;;;20.56;100.00;100139.25;4977428;28;20042;-57
2021/06/17 04:04:34;;;;;;;10.57;7.32;;;;;;;20.63;100.00;100139.91;4978679;28;20031;-57
2021/06/17 04:07:08;;;;;;;13.38;9.10;;;;;;;20.71;100.00;100146.00;4982045;28;20038;-57
2021/06/17 04:09:38;;;;;;;12.57;8.55;;;;;;;20.83;100.00;100132.38;4978959;28;20450;-57
2021/06/17 04:12:09;;;;;;;11.65;7.93;;;;;;;20.97;100.00;100144.53;4981410;28;20042;-57
2021/06/17 04:14:39;;;;;;;10.73;7.60;;;;;;;21.08;100.00;100137.34;4980271;28;20304;-57
2021/06/17 04:17:08;;;;;;;9.95;7.30;;;;;;;21.27;100.00;100137.88;4982777;28;20065;-57
2021/06/17 04:19:38;;;;;;;13.23;7.32;;;;;;;21.32;100.00;100135.22;4981905;28;20117;-57
2021/06/17 04:22:09;;;;;;;9.73;7.00;;;;;;;21.40;100.00;100133.97;4976746;28;20042;-57
2021/06/17 04:24:41;;;;;;;9.48;6.80;;;;;;;21.54;100.00;100127.13;4978867;28;20042;-57
2021/06/17 04:27:09;;;;;;;9.40;7.22;;;;;;;21.65;100.00;100128.91;4975273;28;20046;-57
2021/06/17 04:29:39;;;;;;;13.18;6.63;;;;;;;21.83;100.00;100140.50;4980836;28;20439;-58
2021/06/17 04:32:09;;;;;;;13.52;6.63;;;;;;;21.97;100.00;100146.38;4980906;28;20084;-57
2021/06/17 04:34:40;;;;;;;10.65;6.15;;;;;;;22.21;100.00;100155.03;4975398;28;20042;-58
2021/06/17 04:37:12;;;;;;;8.68;6.03;;;;;;;22.49;100.00;100155.88;4976986;28;20101;-58
2021/06/17 04:39:41;;;;;;;12.48;6.00;;;;;;;22.50;100.00;100158.34;4978911;28;20047;-57
2021/06/17 04:42:10;;;;;;;9.00;6.18;;;;;;;22.44;100.00;100175.72;4982019;28;20097;-58
2021/06/17 04:44:39;;;;;;;8.63;6.38;;;;;;;22.26;100.00;100195.88;4976692;28;20046;-58
2021/06/17 04:47:08;;;;;;;10.57;6.40;;;;;;;21.52;100.00;100223.50;4979298;28;20046;-58
2021/06/17 04:49:36;;;;;;;13.73;7.10;;;;;;;20.95;100.00;100247.91;4979887;28;20065;-57
2021/06/17 04:52:07;;;;;;;10.85;5.38;;;;;;;21.67;100.00;100250.91;4978054;28;20118;-57
2021/06/17 04:54:37;;;;;;;5.57;4.85;;;;;;;22.17;100.00;100281.69;4977539;28;20046;-57
2021/06/17 04:57:05;;;;;;;5.65;4.18;;;;;;;22.46;100.00;100284.25;4983072;28;20184;-58
2021/06/17 04:59:33;;;;;;;13.25;4.53;;;;;;;22.53;100.00;100290.31;4979225;28;20624;-58
2021/06/17 05:02:01;;;;;;;7.75;4.30;;;;;;;22.30;100.00;100292.22;4984222;28;20076;-58
2021/06/17 05:04:28;;;;;;;6.50;3.92;;;;;;;22.33;100.00;100297.16;4977603;28;20053;-57
2021/06/17 05:07:10;;;;;;;6.40;3.70;;;;;;;22.17;100.00;100287.13;4981589;28;20046;-58
2021/06/17 05:12:25;;;;;;;7.55;3.38;;;;;;;22.56;100.00;100286.28;4981020;28;20093;-57
2021/06/17 05:14:53;;;;;;;8.13;3.80;;;;;;;22.47;100.00;100283.16;4980749;28;20454;-57
2021/06/17 05:17:21;;;;;;;9.75;3.38;;;;;;;22.65;100.00;100287.44;4976919;28;20053;-57
2021/06/17 05:19:49;;;;;;;12.50;2.88;;;;;;;22.63;100.00;100301.31;4979198;28;20051;-57
2021/06/17 05:22:16;;;;;;;7.00;3.10;;;;;;;22.64;100.00;100286.63;4980399;28;20354;-58
2021/06/17 05:24:46;;;;;;;8.98;3.28;;;;;;;22.57;100.00;100296.06;4975941;28;20039;-58
2021/06/17 05:27:14;;;;;;;9.00;2.88;;;;;;;22.34;100.00;100289.81;4978190;28;20053;-58
2021/06/17 05:29:44;;;;;;;8.70;2.97;;;;;;;22.29;100.00;100290.56;4978376;28;20081;-58
2021/06/17 05:32:14;;;;;;;7.22;3.03;;;;;;;22.57;100.00;100285.16;4981247;28;20054;-58
2021/06/17 05:34:43;;;;;;;6.68;3.20;;;;;;;22.86;100.00;100299.34;4975563;28;20047;-58
2021/06/17 05:37:11;;;;;;;6.88;3.00;;;;;;;22.62;100.00;100312.44;4977318;28;20047;-57
2021/06/17 05:39:40;;;;;;;4.80;3.40;;;;;;;22.20;100.00;100324.72;4981908;28;20054;-57
2021/06/17 05:42:10;;;;;;;7.35;3.20;;;;;;;22.29;100.00;100350.38;4979088;28;20046;-57
2021/06/17 05:44:38;;;;;;;8.60;3.58;;;;;;;22.30;100.00;100356.66;4981052;28;20549;-58
2021/06/17 05:47:05;;;;;;;5.30;3.45;;;;;;;22.12;100.00;100371.38;4980218;28;20387;-58
2021/06/17 05:49:33;;;;;;;10.77;3.60;;;;;;;22.01;100.00;100360.38;4981803;28;20057;-57
2021/06/17 05:52:01;;;;;;;7.22;3.65;;;;;;;22.22;100.00;100393.25;4984294;28;20046;-58
2021/06/17 05:54:29;;;;;;;5.22;3.50;;;;;;;22.24;100.00;100421.03;4980883;28;20053;-58
2021/06/17 05:56:58;;;;;;;11.60;4.40;;;;;;;22.33;100.00;100440.50;4981888;28;20465;-58
2021/06/17 05:59:27;;;;;;;7.68;3.53;;;;;;;23.09;100.00;100437.06;4981572;28;20043;-57
2021/06/17 06:01:55;;;;;;;9.23;4.53;;;;;;;21.99;100.00;100392.41;4981251;28;20061;-58
2021/06/17 06:04:23;;;;;;;5.25;3.53;;;;;;;22.52;100.00;100398.28;4977115;28;20164;-58
2021/06/17 06:06:51;;;;;;;6.53;3.78;;;;;;;22.51;100.00;100374.91;4981728;28;20485;-58
2021/06/17 06:09:19;;;;;;;8.68;3.63;;;;;;;23.63;100.00;100368.13;4979919;28;20151;-58
2021/06/17 06:11:47;;;;;;;11.18;4.65;;;;;;;23.84;100.00;100341.00;4983638;28;20072;-58
2021/06/17 06:14:15;;;;;;;5.07;4.13;;;;;;;22.72;100.00;100328.06;4976424;28;20046;-58
2021/06/17 06:16:44;;;;;;;10.60;4.40;;;;;;;22.90;100.00;100305.94;4978645;28;20465;-58
2021/06/17 06:19:12;;;;;;;6.40;3.38;;;;;;;22.80;100.00;100301.19;4979122;28;20043;-58
2021/06/17 06:21:40;;;;;;;7.35;4.15;;;;;;;22.07;100.00;100287.00;4975902;28;20039;-58
2021/06/17 06:24:09;;;;;;;6.72;3.40;;;;;;;22.56;100.00;100283.53;4974608;28;20053;-58
2021/06/17 06:26:41;;;;;;;6.85;4.18;;;;;;;22.17;100.00;100270.81;4978800;28;20043;-59
2021/06/17 06:29:09;;;;;;;10.00;4.90;;;;;;;21.76;100.00;100256.72;4980635;28;20050;-58
2021/06/17 06:31:38;;;;;;;10.48;4.80;;;;;;;21.67;100.00;100224.56;4980413;28;20701;-58
2021/06/17 06:34:07;;;;;;;7.50;4.50;;;;;;;21.78;100.00;100211.09;4979835;28;20046;-58
2021/06/17 06:36:35;;;;;;;7.88;4.70;;;;;;;21.96;100.00;100232.53;4983147;28;20038;-58
2021/06/17 06:39:04;;;;;;;11.93;4.45;;;;;;;22.34;100.00;100202.78;4981508;28;20054;-59
2021/06/17 06:41:32;;;;;;;11.27;4.80;;;;;;;22.37;100.00;100177.81;4985805;28;20053;-58
2021/06/17 06:44:00;;;;;;;7.70;5.22;;;;;;;21.98;100.00;100164.31;4985047;28;20101;-58
2021/06/17 06:46:28;;;;;;;11.25;4.93;;;;;;;22.34;100.00;100162.84;4981712;28;20035;-58
2021/06/17 06:48:56;;;;;;;9.13;5.25;;;;;;;22.32;100.00;100189.41;4982716;28;20125;-57
2021/06/17 06:51:25;;;;;;;12.40;5.07;;;;;;;22.48;100.00;100162.41;4982677;28;20050;-57
2021/06/17 06:53:53;;;;;;;9.05;4.95;;;;;;;22.41;100.00;100159.91;4983977;28;20504;-57
2021/06/17 06:56:21;;;;;;;6.22;4.43;;;;;;;22.54;100.00;100147.78;4980181;28;20050;-57
2021/06/17 06:58:49;;;;;;;8.48;5.40;;;;;;;22.40;100.00;100136.50;4982722;28;20054;-57
2021/06/17 07:01:17;;;;;;;11.90;4.70;;;;;;;22.27;100.00;100164.91;4985981;28;20069;-57
2021/06/17 07:03:45;;;;;;;7.85;4.28;;;;;;;22.26;100.00;100182.28;4982478;28;20376;-57
2021/06/17 07:06:13;;;;;;;10.00;4.55;;;;;;;22.29;100.00;100167.38;4981066;28;20469;-57
2021/06/17 07:08:42;;;;;;;7.95;4.88;;;;;;;22.14;100.00;100177.00;4980626;28;20065;-57
2021/06/17 07:11:10;;;;;;;11.50;5.00;;;;;;;22.16;100.00;100174.03;4984605;28;20454;-57
2021/06/17 07:13:39;;;;;;;17.88;4.90;;;;;;;22.05;100.00;100180.44;4982540;28;20049;-57
2021/06/17 07:16:06;;;;;;;8.43;4.63;;;;;;;22.06;100.00;100180.19;4978200;28;20435;-57
2021/06/17 07:18:35;;;;;;;7.65;5.00;;;;;;;22.21;100.00;100179.50;4985331;28;20050;-57
2021/06/17 07:21:03;;;;;;;11.75;4.93;;;;;;;22.23;100.00;100177.38;4980107;28;20046;-57
2021/06/17 07:23:33;;;;;;;9.25;5.05;;;;;;;22.26;100.00;100182.28;4982379;28;20043;-60
2021/06/17 07:26:02;;;;;;;7.20;4.93;;;;;;;22.29;100.00;100183.69;4978595;28;20042;-57
2021/06/17 07:28:30;;;;;;;11.73;5.22;;;;;;;22.44;100.00;100186.59;4984386;28;20054;-57
2021/06/17 07:30:59;;;;;;;8.00;5.90;;;;;;;22.51;100.00;100189.06;4983975;28;20058;-58
2021/06/17 07:33:29;;;;;;;8.82;5.10;;;;;;;22.82;100.00;100194.78;4980448;28;20050;-58
2021/06/17 07:35:57;;;;;;;8.68;4.78;;;;;;;22.86;100.00;100196.72;4978069;28;20042;-58
2021/06/17 07:38:24;;;;;;;6.53;5.07;;;;;;;23.14;100.00;100204.88;4985828;28;20081;-57
2021/06/17 07:40:52;;;;;;;9.52;4.78;;;;;;;23.06;100.00;100206.13;4983467;28;20042;-57
2021/06/17 07:43:22;;;;;;;7.70;4.82;;;;;;;23.01;100.00;100203.41;4981841;28;20046;-57
2021/06/17 07:45:50;;;;;;;13.18;5.18;;;;;;;23.15;100.00;100211.94;4977774;28;20121;-57
2021/06/17 07:48:18;;;;;;;7.88;4.47;;;;;;;23.21;100.00;100219.91;4980419;28;20058;-58
2021/06/17 07:50:46;;;;;;;8.40;4.22;;;;;;;23.64;100.00;100230.78;4983464;28;20096;-57
2021/06/17 07:53:14;;;;;;;8.63;4.07;;;;;;;23.86;100.00;100230.63;4978392;28;20059;-58
2021/06/17 07:55:42;;;;;;;8.18;4.25;;;;;;;24.01;100.00;100235.31;4981056;28;20046;-58
2021/06/17 07:58:10;;;;;;;7.07;4.43;;;;;;;23.79;100.00;100230.03;4979888;28;20051;-57
2021/06/17 08:00:39;;;;;;;6.40;4.28;;;;;;;24.02;100.00;100244.34;4980579;28;20097;-58
2021/06/17 08:03:08;;;;;;;6.93;3.95;;;;;;;23.98;100.00;100244.03;4980772;28;20054;-59
2021/06/17 08:05:36;;;;;;;8.05;4.22;;;;;;;23.95;100.00;100255.50;4984105;28;20454;-58
2021/06/17 08:08:04;;;;;;;14.25;5.18;;;;;;;24.09;100.00;100250.38;4982764;28;20046;-58
2021/06/17 08:10:32;;;;;;;9.77;4.28;;;;;;;26.08;100.00;100249.81;4981141;28;20463;-58
2021/06/17 08:13:00;;;;;;;6.70;3.78;;;;;;;26.19;100.00;100267.00;4979824;28;20042;-58
2021/06/17 08:15:28;;;;;;;6.18;3.58;;;;;;;26.69;100.00;100267.00;4982703;28;20038;-59
2021/06/17 08:17:58;;;;;;;6.13;3.75;;;;;;;27.56;100.00;100265.44;4979025;28;20034;-58
2021/06/17 08:20:26;;;;;;;10.20;4.28;;;;;;;27.42;100.00;100266.16;4983510;28;20054;-58
2021/06/17 08:22:54;;;;;;;9.20;3.80;;;;;;;28.28;100.00;100272.84;4978648;28;20046;-58
2021/06/17 08:25:22;;;;;;;12.85;4.85;;;;;;;28.47;100.00;100273.69;4977101;28;20097;-58
2021/06/17 08:27:50;;;;;;;5.95;3.72;;;;;;;28.38;100.00;100277.38;4995352;28;20038;-58
2021/06/17 08:30:19;;;;;;;6.07;3.75;;;;;;;28.79;100.00;100291.38;4980834;28;20100;-58
2021/06/17 08:32:48;;;;;;;9.85;3.92;;;;;;;29.26;100.00;100291.47;4983933;28;20164;-58
2021/06/17 08:35:18;;;;;;;5.93;3.45;;;;;;;28.45;100.00;100288.81;4979634;28;20109;-58
2021/06/17 08:37:46;;;;;;;9.85;4.25;;;;;;;28.60;100.00;100296.03;4984381;28;20038;-58
2021/06/17 08:40:14;;;;;;;9.02;3.72;;;;;;;28.77;100.00;100303.78;4980761;28;20046;-58
2021/06/17 08:42:42;;;;;;;5.53;2.75;;;;;;;28.66;100.00;100301.19;4976265;28;20050;-59
2021/06/17 08:45:11;;;;;;;5.63;3.35;;;;;;;29.35;100.00;100310.84;4977799;28;20074;-61
2021/06/17 08:47:39;;;;;;;5.18;3.22;;;;;;;28.79;100.00;100302.38;4978728;28;20307;-58
2021/06/17 08:50:11;;;;;;;5.60;3.22;;;;;;;27.11;100.00;100299.28;4982063;28;20378;-58
2021/06/17 08:52:41;;;;;;;6.35;3.13;;;;;;;27.58;100.00;100315.34;4982752;28;20097;-58
2021/06/17 08:55:15;;;;;;;8.57;4.15;;;;;;;27.46;100.00;100297.38;4976478;28;20053;-58
2021/06/17 08:57:43;;;;;;;5.97;2.80;;;;;;;27.75;100.00;100301.19;4983008;28;20031;-57
2021/06/17 09:00:31;;;;;;;6.10;2.80;;;;;;;28.87;100.00;100314.59;4978382;28;20047;-60
2021/06/17 09:03:01;;;;;;;8.82;3.22;;;;;;;28.96;100.00;100312.00;4980393;28;20054;-60
2021/06/17 09:05:30;;;;;;;4.35;2.67;;;;;;;28.61;100.00;100327.88;4979309;28;20473;-60
2021/06/17 09:08:00;;;;;;;7.00;2.80;;;;;;;28.38;100.00;100330.38;4979044;28;20039;-58
2021/06/17 09:10:29;;;;;;;5.35;2.42;;;;;;;29.04;100.00;100330.56;4983558;28;20049;-58
2021/06/17 09:12:59;;;;;;;5.55;2.90;;;;;;;27.97;100.00;100336.31;4980061;28;20446;-58
2021/06/17 09:15:39;;;;;;;4.78;2.63;;;;;;;28.44;100.00;100350.34;4974392;28;20375;-58
2021/06/17 09:18:17;;;;;;;7.30;3.00;;;;;;;28.89;100.00;100350.84;4984463;28;20039;-57
2021/06/17 09:20:48;;;;;;;4.90;2.92;;;;;;;28.82;100.00;100367.69;4984907;28;20070;-57
2021/06/17 09:23:23;;;;;;;9.48;3.58;;;;;;;28.67;100.00;100376.16;4981740;28;20521;-59
2021/06/17 09:25:52;;;;;;;7.45;3.30;;;;;;;29.78;100.00;100375.81;4977279;28;20120;-58
2021/06/17 09:28:20;;;;;;;7.90;2.90;;;;;;;31.06;100.00;100372.38;4976015;28;20038;-58
2021/06/17 09:30:48;;;;;;;9.07;3.42;;;;;;;28.61;100.00;100369.88;4983498;28;20047;-58
2021/06/17 09:33:16;;;;;;;6.43;2.92;;;;;;;29.24;100.00;100383.59;4975891;28;20076;-58
2021/06/17 09:35:50;;;;;;;4.13;2.70;;;;;;;28.77;100.00;100377.94;4976353;28;20038;-59
2021/06/17 09:38:20;;;;;;;6.07;3.25;;;;;;;26.89;100.00;100401.09;4978916;28;20043;-57
2021/06/17 09:40:50;;;;;;;10.52;4.22;;;;;;;27.79;100.00;100396.31;4981234;28;20055;-57
2021/06/17 09:43:24;;;;;;;4.72;2.95;;;;;;;27.86;100.00;100393.22;4979999;28;20394;-58
2021/06/17 09:45:57;;;;;;;4.30;2.97;;;;;;;29.22;100.00;100396.78;4979035;28;20065;-59
2021/06/17 09:48:37;;;;;;;4.57;3.33;;;;;;;29.10;100.00;100408.25;4982335;28;20062;-58
2021/06/17 09:51:23;;;;;;;8.45;3.70;;;;;;;29.40;100.00;100404.22;4976451;28;20054;-57
2021/06/17 09:53:54;;;;;;;5.82;2.92;;;;;;;28.30;100.00;100405.16;4975449;28;20435;-58
2021/06/17 09:56:34;;;;;;;7.18;4.88;;;;;;;27.19;100.00;100412.13;4975991;28;20042;-57
2021/06/17 09:59:03;;;;;;;4.40;3.15;;;;;;;29.05;100.00;100413.81;4980169;28;20042;-57
2021/06/17 10:01:34;;;;;;;4.45;3.20;;;;;;;29.41;100.00;100411.34;4976181;28;20403;-58
2021/06/17 10:04:07;;;;;;;5.70;3.35;;;;;;;30.12;100.00;100410.44;4977296;28;20050;-60
2021/06/17 10:06:36;;;;;;;6.88;3.80;;;;;;;27.35;100.00;100413.69;4981679;28;20054;-58
2021/06/17 10:09:08;;;;;;;8.00;3.80;;;;;;;27.87;100.00;100419.56;4982102;28;20047;-58
2021/06/17 10:11:36;;;;;;;5.03;4.00;;;;;;;27.63;100.00;100414.03;4982729;28;20054;-58
2021/06/17 10:14:06;;;;;;;6.50;4.07;;;;;;;28.82;100.00;100419.06;4982340;28;20038;-58
2021/06/17 10:16:35;;;;;;;7.50;4.25;;;;;;;28.40;100.00;100429.72;4982716;28;20351;-58
2021/06/17 10:19:03;;;;;;;6.90;3.92;;;;;;;28.00;100.00;100420.84;4984516;28;20039;-58
2021/06/17 10:21:31;;;;;;;6.20;3.25;;;;;;;28.68;100.00;100432.72;4987963;28;20327;-57
2021/06/17 10:24:00;;;;;;;5.20;3.28;;;;;;;28.03;100.00;100442.22;4984303;28;20047;-58
2021/06/17 10:26:32;;;;;;;4.47;3.28;;;;;;;28.85;100.00;100449.53;4981972;28;20077;-58
2021/06/17 10:29:00;;;;;;;4.20;2.92;;;;;;;28.11;100.00;100449.81;4984175;28;20438;-58
2021/06/17 10:31:50;;;;;;;8.73;3.05;;;;;;;29.25;100.00;100451.22;4980132;28;20054;-58
2021/06/17 10:34:38;;;;;;;7.65;3.03;;;;;;;29.38;100.00;100455.97;4978135;28;20390;-59
2021/06/17 10:37:15;;;;;;;5.20;3.05;;;;;;;29.12;100.00;100464.56;4983732;28;20050;-58
2021/06/17 10:39:45;;;;;;;6.72;2.83;;;;;;;27.44;100.00;100466.78;4980216;28;20049;-58
2021/06/17 10:42:36;;;;;;;4.72;2.92;;;;;;;29.48;100.00;100461.28;4984059;28;20074;-58
2021/06/17 10:45:07;;;;;;;7.22;2.92;;;;;;;28.64;100.00;100470.94;4978661;28;20051;-60
2021/06/17 10:48:07;;;;;;;5.10;3.40;;;;;;;28.82;100.00;100468.50;4981975;28;20523;-57
2021/06/17 10:50:49;;;;;;;5.45;3.13;;;;;;;30.07;100.00;100476.59;4979307;28;20049;-57
2021/06/17 10:53:19;;;;;;;6.57;3.22;;;;;;;30.35;100.00;100471.94;4980556;28;20047;-57
2021/06/17 10:55:52;;;;;;;4.63;3.38;;;;;;;29.10;100.00;100479.69;4977495;28;20050;-58
2021/06/17 10:58:52;;;;;;;4.65;3.10;;;;;;;29.58;100.00;100476.81;4985134;28;20046;-58
2021/06/17 11:01:28;;;;;;;5.82;3.40;;;;;;;29.00;100.00;100472.41;4978776;28;20121;-58
2021/06/17 11:04:08;;;;;;;4.13;3.50;;;;;;;30.27;100.00;100472.66;4979960;28;20049;-57
2021/06/17 11:07:14;;;;;;;6.13;3.15;;;;;;;29.75;100.00;100478.22;4985700;28;20051;-58
2021/06/17 11:09:48;;;;;;;6.22;3.92;;;;;;;29.48;100.00;100469.53;4980859;28;20381;-59
2021/06/17 11:12:35;;;;;;;;;;;;;;;28.76;100.00;100478.75;4981827;28;20051;-58
2021/06/17 11:15:08;;;;;;;7.05;4.03;;;;;;;31.28;100.00;100486.59;4980115;28;19929;-59
2021/06/17 11:17:43;;;;;;;5.63;4.18;;;;;;;31.36;100.00;100499.66;4983500;28;20042;-59
2021/06/17 11:20:13;;;;;;;8.38;4.13;;;;;;;31.02;100.00;100487.19;4983588;28;20054;-59
2021/06/17 11:22:44;;;;;;;7.80;4.20;;;;;;;29.03;100.00;100491.88;4985052;28;20049;-59
2021/06/17 11:25:16;;;;;;;8.77;4.38;;;;;;;29.58;100.00;100498.00;4981832;28;20053;-58
2021/06/17 11:27:58;;;;;;;6.00;4.20;;;;;;;29.56;100.00;100491.97;4981215;28;20057;-58
2021/06/17 11:30:58;;;;;;;7.57;3.63;;;;;;;30.53;100.00;100490.31;4979732;28;20042;-58